sensor_id;sensor_type;location;lat;lon;timestamp;pressure;altitude;pressure_sealevel;temperature;humidity
73674;BME280;61975;48.660;10.164;2023-10-31T00:00:05;94109.53;;;11.51;100.00
73674;BME280;61975;48.660;10.164;2023-10-31T00:02:30;94101.56;;;11.53;100.00
73674;BME280;61975;48.660;10.164;2023-10-31T00:04:56;94095.41;;;11.42;100.00
73674;BME280;61975;48.660;10.164;2023-10-31T00:07:22;94100.69;;;11.56;100.00
73674;BME280;61975;48.660;10.164;2023-10-31T00:09:47;94105.19;;;11.50;100.00
73674;BME280;61975;48.660;10.164;2023-10-31T00:12:12;94106.72;;;11.31;100.00
73674;BME280;61975;48.660;10.164;2023-10-31T00:14:39;94112.06;;;11.42;100.00
73674;BME280;61975;48.660;10.164;2023-10-31T00:17:04;94111.09;;;11.52;100.00
73674;BME280;61975;48.660;10.164;2023-10-31T00:19:30;94112.19;;;11.58;100.00
73674;BME280;61975;48.660;10.164;2023-10-31T00:21:55;94105.41;;;11.59;100.00
73674;BME280;61975;48.660;10.164;2023-10-31T00:24:21;94104.59;;;11.62;100.00
73674;BME280;61975;48.660;10.164;2023-10-31T00:26:46;94107.00;;;11.60;100.00
73674;BME280;61975;48.660;10.164;2023-10-31T00:29:11;94114.97;;;11.58;100.00
73674;BME280;61975;48.660;10.164;2023-10-31T00:31:37;94113.72;;;11.62;100.00
73674;BME280;61975;48.660;10.164;2023-10-31T00:34:06;94119.63;;;11.64;100.00
73674;BME280;61975;48.660;10.164;2023-10-31T00:36:32;94111.69;;;11.63;100.00
73674;BME280;61975;48.660;10.164;2023-10-31T00:38:57;94105.28;;;11.66;100.00
73674;BME280;61975;48.660;10.164;2023-10-31T00:41:22;94108.06;;;11.66;100.00
73674;BME280;61975;48.660;10.164;2023-10-31T00:43:48;94108.59;;;11.57;100.00
73674;BME280;61975;48.660;10.164;2023-10-31T00:46:13;94114.84;;;11.65;100.00
73674;BME280;61975;48.660;10.164;2023-10-31T00:48:38;94102.19;;;11.64;100.00
73674;BME280;61975;48.660;10.164;2023-10-31T00:51:04;94102.50;;;11.66;100.00
73674;BME280;61975;48.660;10.164;2023-10-31T00:53:30;94105.28;;;11.66;100.00
73674;BME280;61975;48.660;10.164;2023-10-31T00:55:55;94099.72;;;11.66;100.00
73674;BME280;61975;48.660;10.164;2023-10-31T00:58:20;94094.19;;;11.66;100.00
73674;BME280;61975;48.660;10.164;2023-10-31T01:00:46;94090.25;;;11.63;100.00
73674;BME280;61975;48.660;10.164;2023-10-31T01:03:11;94093.84;;;11.64;100.00
73674;BME280;61975;48.660;10.164;2023-10-31T01:05:37;94091.88;;;11.61;100.00
73674;BME280;61975;48.660;10.164;2023-10-31T01:08:02;94082.47;;;11.55;100.00
73674;BME280;61975;48.660;10.164;2023-10-31T01:10:28;94099.84;;;11.59;100.00
73674;BME280;61975;48.660;10.164;2023-10-31T01:12:53;94103.84;;;11.58;100.00
73674;BME280;61975;48.660;10.164;2023-10-31T01:15:18;94105.91;;;11.54;100.00
73674;BME280;61975;48.660;10.164;2023-10-31T01:17:44;94104.78;;;11.51;100.00
73674;BME280;61975;48.660;10.164;2023-10-31T01:20:09;94107.13;;;11.53;100.00
73674;BME280;61975;48.660;10.164;2023-10-31T01:22:35;94111.03;;;11.55;100.00
73674;BME280;61975;48.660;10.164;2023-10-31T01:25:01;94113.97;;;11.48;100.00
73674;BME280;61975;48.660;10.164;2023-10-31T01:27:26;94110.25;;;11.55;100.00
73674;BME280;61975;48.660;10.164;2023-10-31T01:29:52;94113.41;;;11.57;100.00
73674;BME280;61975;48.660;10.164;2023-10-31T01:32:17;94121.88;;;11.50;100.00
73674;BME280;61975;48.660;10.164;2023-10-31T01:34:43;94129.91;;;11.44;100.00
73674;BME280;61975;48.660;10.164;2023-10-31T01:37:08;94134.94;;;11.30;100.00
73674;BME280;61975;48.660;10.164;2023-10-31T01:39:36;94144.19;;;11.23;100.00
73674;BME280;61975;48.660;10.164;2023-10-31T01:42:02;94155.78;;;11.18;100.00
73674;BME280;61975;48.660;10.164;2023-10-31T01:44:27;94147.38;;;10.98;100.00
73674;BME280;61975;48.660;10.164;2023-10-31T01:46:52;94158.25;;;10.63;100.00
73674;BME280;61975;48.660;10.164;2023-10-31T01:49:18;94158.03;;;10.50;100.00
73674;BME280;61975;48.660;10.164;2023-10-31T01:51:45;94164.28;;;10.31;100.00
73674;BME280;61975;48.660;10.164;2023-10-31T01:54:12;94171.97;;;10.17;100.00
73674;BME280;61975;48.660;10.164;2023-10-31T01:56:38;94173.75;;;10.34;100.00
73674;BME280;61975;48.660;10.164;2023-10-31T01:59:05;94176.13;;;10.32;100.00
73674;BME280;61975;48.660;10.164;2023-10-31T02:01:32;94183.09;;;10.43;100.00
73674;BME280;61975;48.660;10.164;2023-10-31T02:03:57;94185.88;;;10.43;100.00
73674;BME280;61975;48.660;10.164;2023-10-31T02:06:24;94201.25;;;10.21;100.00
73674;BME280;61975;48.660;10.164;2023-10-31T02:08:49;94207.31;;;10.09;100.00
73674;BME280;61975;48.660;10.164;2023-10-31T02:11:15;94199.81;;;10.06;100.00
73674;BME280;61975;48.660;10.164;2023-10-31T02:13:40;94206.69;;;10.28;100.00
73674;BME280;61975;48.660;10.164;2023-10-31T02:16:06;94212.88;;;10.09;100.00
73674;BME280;61975;48.660;10.164;2023-10-31T02:18:32;94212.44;;;10.14;100.00
73674;BME280;61975;48.660;10.164;2023-10-31T02:20:58;94218.13;;;10.00;100.00
73674;BME280;61975;48.660;10.164;2023-10-31T02:23:23;94214.06;;;10.08;100.00
73674;BME280;61975;48.660;10.164;2023-10-31T02:25:49;94206.16;;;10.10;100.00
73674;BME280;61975;48.660;10.164;2023-10-31T02:28:14;94203.06;;;9.98;100.00
73674;BME280;61975;48.660;10.164;2023-10-31T02:30:40;94210.09;;;10.09;100.00
73674;BME280;61975;48.660;10.164;2023-10-31T02:33:05;94203.53;;;10.26;100.00
73674;BME280;61975;48.660;10.164;2023-10-31T02:35:31;94203.03;;;10.01;100.00
73674;BME280;61975;48.660;10.164;2023-10-31T02:37:56;94213.31;;;10.04;100.00
73674;BME280;61975;48.660;10.164;2023-10-31T02:40:22;94217.72;;;9.98;100.00
73674;BME280;61975;48.660;10.164;2023-10-31T02:42:47;94220.56;;;9.95;100.00
73674;BME280;61975;48.660;10.164;2023-10-31T02:45:13;94217.91;;;10.18;100.00
73674;BME280;61975;48.660;10.164;2023-10-31T02:47:38;94219.47;;;10.19;100.00
73674;BME280;61975;48.660;10.164;2023-10-31T02:50:04;94210.88;;;10.10;100.00
73674;BME280;61975;48.660;10.164;2023-10-31T02:52:30;94223.59;;;10.07;100.00
73674;BME280;61975;48.660;10.164;2023-10-31T02:54:56;94217.41;;;10.26;100.00
73674;BME280;61975;48.660;10.164;2023-10-31T02:57:21;94218.97;;;10.27;100.00
73674;BME280;61975;48.660;10.164;2023-10-31T02:59:46;94211.63;;;10.14;100.00
73674;BME280;61975;48.660;10.164;2023-10-31T03:02:12;94218.38;;;10.13;100.00
73674;BME280;61975;48.660;10.164;2023-10-31T03:04:37;94224.50;;;10.31;100.00
73674;BME280;61975;48.660;10.164;2023-10-31T03:07:03;94228.78;;;10.35;100.00
73674;BME280;61975;48.660;10.164;2023-10-31T03:09:28;94221.09;;;10.16;100.00
73674;BME280;61975;48.660;10.164;2023-10-31T03:11:54;94232.25;;;10.13;100.00
73674;BME280;61975;48.660;10.164;2023-10-31T03:14:19;94233.81;;;10.14;100.00
73674;BME280;61975;48.660;10.164;2023-10-31T03:16:44;94225.50;;;10.14;100.00
73674;BME280;61975;48.660;10.164;2023-10-31T03:19:10;94224.69;;;10.13;100.00
73674;BME280;61975;48.660;10.164;2023-10-31T03:21:35;94227.75;;;10.26;100.00
73674;BME280;61975;48.660;10.164;2023-10-31T03:24:01;94224.44;;;10.34;100.00
73674;BME280;61975;48.660;10.164;2023-10-31T03:26:26;94237.84;;;10.39;100.00
73674;BME280;61975;48.660;10.164;2023-10-31T03:28:52;94239.97;;;10.28;100.00
73674;BME280;61975;48.660;10.164;2023-10-31T03:31:22;94240.75;;;10.29;100.00
73674;BME280;61975;48.660;10.164;2023-10-31T03:33:48;94242.53;;;10.12;100.00
73674;BME280;61975;48.660;10.164;2023-10-31T03:36:13;94246.56;;;10.08;100.00
73674;BME280;61975;48.660;10.164;2023-10-31T03:38:39;94261.41;;;9.87;100.00
73674;BME280;61975;48.660;10.164;2023-10-31T03:41:04;94254.84;;;10.11;100.00
73674;BME280;61975;48.660;10.164;2023-10-31T03:43:30;94254.38;;;10.16;100.00
73674;BME280;61975;48.660;10.164;2023-10-31T03:45:56;94258.47;;;10.01;100.00
73674;BME280;61975;48.660;10.164;2023-10-31T03:48:21;94255.66;;;10.08;100.00
73674;BME280;61975;48.660;10.164;2023-10-31T03:50:46;94262.00;;;10.09;100.00
73674;BME280;61975;48.660;10.164;2023-10-31T03:53:12;94257.81;;;9.90;100.00
73674;BME280;61975;48.660;10.164;2023-10-31T03:55:38;94266.38;;;10.03;100.00
73674;BME280;61975;48.660;10.164;2023-10-31T03:58:03;94263.22;;;10.01;100.00
73674;BME280;61975;48.660;10.164;2023-10-31T04:00:29;94258.44;;;10.08;100.00
73674;BME280;61975;48.660;10.164;2023-10-31T04:02:55;94268.38;;;10.02;100.00
73674;BME280;61975;48.660;10.164;2023-10-31T04:05:20;94272.72;;;10.07;100.00
73674;BME280;61975;48.660;10.164;2023-10-31T04:07:46;94276.00;;;9.91;100.00
73674;BME280;61975;48.660;10.164;2023-10-31T04:10:12;94266.91;;;9.91;100.00
73674;BME280;61975;48.660;10.164;2023-10-31T04:12:38;94264.38;;;10.03;100.00
73674;BME280;61975;48.660;10.164;2023-10-31T04:15:04;94265.25;;;10.00;100.00
73674;BME280;61975;48.660;10.164;2023-10-31T04:17:30;94265.75;;;9.88;100.00
73674;BME280;61975;48.660;10.164;2023-10-31T04:19:55;94274.81;;;9.92;100.00
73674;BME280;61975;48.660;10.164;2023-10-31T04:22:21;94267.06;;;9.77;100.00
73674;BME280;61975;48.660;10.164;2023-10-31T04:24:46;94257.16;;;9.76;100.00
73674;BME280;61975;48.660;10.164;2023-10-31T04:27:11;94279.69;;;9.81;100.00
73674;BME280;61975;48.660;10.164;2023-10-31T04:29:37;94269.19;;;9.62;100.00
73674;BME280;61975;48.660;10.164;2023-10-31T04:32:02;94271.56;;;9.64;100.00
73674;BME280;61975;48.660;10.164;2023-10-31T04:34:28;94266.78;;;9.64;100.00
73674;BME280;61975;48.660;10.164;2023-10-31T04:36:54;94270.63;;;9.77;100.00
73674;BME280;61975;48.660;10.164;2023-10-31T04:39:19;94276.69;;;9.65;100.00
73674;BME280;61975;48.660;10.164;2023-10-31T04:41:44;94272.38;;;9.57;100.00
73674;BME280;61975;48.660;10.164;2023-10-31T04:44:10;94275.16;;;9.57;100.00
73674;BME280;61975;48.660;10.164;2023-10-31T04:46:35;94267.72;;;9.51;100.00
73674;BME280;61975;48.660;10.164;2023-10-31T04:49:00;94274.81;;;9.52;100.00
73674;BME280;61975;48.660;10.164;2023-10-31T04:51:26;94274.00;;;9.55;100.00
73674;BME280;61975;48.660;10.164;2023-10-31T04:53:51;94278.81;;;9.47;100.00
73674;BME280;61975;48.660;10.164;2023-10-31T04:56:17;94286.53;;;9.70;100.00
73674;BME280;61975;48.660;10.164;2023-10-31T04:58:42;94283.00;;;9.66;100.00
73674;BME280;61975;48.660;10.164;2023-10-31T05:01:12;94290.41;;;9.79;100.00
73674;BME280;61975;48.660;10.164;2023-10-31T05:03:38;94275.28;;;9.87;100.00
73674;BME280;61975;48.660;10.164;2023-10-31T05:06:04;94289.13;;;9.87;100.00
73674;BME280;61975;48.660;10.164;2023-10-31T05:08:30;94275.63;;;9.89;100.00
73674;BME280;61975;48.660;10.164;2023-10-31T05:10:56;94280.31;;;9.96;100.00
73674;BME280;61975;48.660;10.164;2023-10-31T05:13:21;94283.94;;;9.89;100.00
73674;BME280;61975;48.660;10.164;2023-10-31T05:15:47;94283.50;;;9.94;100.00
73674;BME280;61975;48.660;10.164;2023-10-31T05:18:12;94296.09;;;10.02;100.00
73674;BME280;61975;48.660;10.164;2023-10-31T05:20:37;94290.16;;;10.07;100.00
73674;BME280;61975;48.660;10.164;2023-10-31T05:23:03;94300.44;;;10.07;100.00
73674;BME280;61975;48.660;10.164;2023-10-31T05:25:28;94294.13;;;9.99;100.00
73674;BME280;61975;48.660;10.164;2023-10-31T05:27:53;94302.00;;;10.08;100.00
73674;BME280;61975;48.660;10.164;2023-10-31T05:30:19;94308.47;;;9.94;100.00
73674;BME280;61975;48.660;10.164;2023-10-31T05:32:44;94310.78;;;9.99;100.00
73674;BME280;61975;48.660;10.164;2023-10-31T05:35:10;94309.25;;;9.95;100.00
73674;BME280;61975;48.660;10.164;2023-10-31T05:37:36;94309.16;;;9.61;100.00
73674;BME280;61975;48.660;10.164;2023-10-31T05:40:01;94316.66;;;9.64;100.00
73674;BME280;61975;48.660;10.164;2023-10-31T05:42:27;94331.66;;;9.70;100.00
73674;BME280;61975;48.660;10.164;2023-10-31T05:44:54;94331.59;;;9.74;100.00
73674;BME280;61975;48.660;10.164;2023-10-31T05:47:19;94324.53;;;9.69;100.00
73674;BME280;61975;48.660;10.164;2023-10-31T05:49:46;94318.94;;;9.76;100.00
73674;BME280;61975;48.660;10.164;2023-10-31T05:52:11;94327.19;;;9.83;100.00
73674;BME280;61975;48.660;10.164;2023-10-31T05:54:37;94339.91;;;9.74;100.00
73674;BME280;61975;48.660;10.164;2023-10-31T05:57:02;94348.28;;;9.67;100.00
73674;BME280;61975;48.660;10.164;2023-10-31T05:59:28;94348.34;;;9.63;100.00
73674;BME280;61975;48.660;10.164;2023-10-31T06:01:53;94349.47;;;9.69;100.00
73674;BME280;61975;48.660;10.164;2023-10-31T06:04:18;94357.97;;;9.45;100.00
73674;BME280;61975;48.660;10.164;2023-10-31T06:06:44;94359.63;;;9.35;100.00
73674;BME280;61975;48.660;10.164;2023-10-31T06:09:09;94372.00;;;9.20;100.00
73674;BME280;61975;48.660;10.164;2023-10-31T06:11:35;94375.03;;;9.36;100.00
73674;BME280;61975;48.660;10.164;2023-10-31T06:14:01;94377.41;;;9.41;100.00
73674;BME280;61975;48.660;10.164;2023-10-31T06:16:26;94388.00;;;9.53;100.00
73674;BME280;61975;48.660;10.164;2023-10-31T06:18:52;94377.78;;;9.43;100.00
73674;BME280;61975;48.660;10.164;2023-10-31T06:21:17;94392.88;;;9.35;100.00
73674;BME280;61975;48.660;10.164;2023-10-31T06:23:43;94392.97;;;9.21;100.00
73674;BME280;61975;48.660;10.164;2023-10-31T06:26:10;94407.13;;;9.30;100.00
73674;BME280;61975;48.660;10.164;2023-10-31T06:28:37;94409.91;;;9.30;100.00
73674;BME280;61975;48.660;10.164;2023-10-31T06:31:03;94412.69;;;9.27;100.00
73674;BME280;61975;48.660;10.164;2023-10-31T06:33:28;94415.91;;;9.18;100.00
73674;BME280;61975;48.660;10.164;2023-10-31T06:35:54;94423.81;;;9.16;100.00
73674;BME280;61975;48.660;10.164;2023-10-31T06:38:19;94420.63;;;9.21;100.00
73674;BME280;61975;48.660;10.164;2023-10-31T06:40:45;94435.66;;;9.24;100.00
73674;BME280;61975;48.660;10.164;2023-10-31T06:43:10;94434.09;;;9.23;100.00
73674;BME280;61975;48.660;10.164;2023-10-31T06:45:36;94434.97;;;9.06;100.00
73674;BME280;61975;48.660;10.164;2023-10-31T06:48:02;94437.19;;;9.32;100.00
73674;BME280;61975;48.660;10.164;2023-10-31T06:50:27;94440.34;;;9.30;100.00
73674;BME280;61975;48.660;10.164;2023-10-31T06:52:53;94446.72;;;9.27;100.00
73674;BME280;61975;48.660;10.164;2023-10-31T06:55:18;94447.56;;;9.14;100.00
73674;BME280;61975;48.660;10.164;2023-10-31T06:57:44;94454.72;;;9.11;100.00
73674;BME280;61975;48.660;10.164;2023-10-31T07:00:11;94450.72;;;9.12;100.00
73674;BME280;61975;48.660;10.164;2023-10-31T07:02:36;94451.38;;;9.37;100.00
73674;BME280;61975;48.660;10.164;2023-10-31T07:05:02;94462.88;;;9.39;100.00
73674;BME280;61975;48.660;10.164;2023-10-31T07:07:28;94462.47;;;9.37;100.00
73674;BME280;61975;48.660;10.164;2023-10-31T07:09:54;94462.50;;;9.30;100.00
73674;BME280;61975;48.660;10.164;2023-10-31T07:12:19;94469.56;;;9.45;100.00
73674;BME280;61975;48.660;10.164;2023-10-31T07:14:45;94464.78;;;9.49;100.00
73674;BME280;61975;48.660;10.164;2023-10-31T07:17:10;94463.22;;;9.48;100.00
73674;BME280;61975;48.660;10.164;2023-10-31T07:19:36;94460.06;;;9.46;100.00
73674;BME280;61975;48.660;10.164;2023-10-31T07:22:02;94463.19;;;9.55;100.00
73674;BME280;61975;48.660;10.164;2023-10-31T07:24:27;94458.44;;;9.52;100.00
73674;BME280;61975;48.660;10.164;2023-10-31T07:26:53;94472.25;;;9.59;100.00
73674;BME280;61975;48.660;10.164;2023-10-31T07:29:19;94476.72;;;9.43;99.69
73674;BME280;61975;48.660;10.164;2023-10-31T07:31:44;94478.31;;;9.33;100.00
73674;BME280;61975;48.660;10.164;2023-10-31T07:34:10;94478.97;;;9.58;100.00
73674;BME280;61975;48.660;10.164;2023-10-31T07:36:36;94484.22;;;9.39;99.99
73674;BME280;61975;48.660;10.164;2023-10-31T07:39:02;94489.31;;;9.51;100.00
73674;BME280;61975;48.660;10.164;2023-10-31T07:41:29;94484.47;;;9.69;99.92
73674;BME280;61975;48.660;10.164;2023-10-31T07:43:54;94489.56;;;9.74;99.16
73674;BME280;61975;48.660;10.164;2023-10-31T07:46:20;94489.84;;;9.90;98.79
73674;BME280;61975;48.660;10.164;2023-10-31T07:48:45;94483.06;;;10.01;96.80
73674;BME280;61975;48.660;10.164;2023-10-31T07:51:10;94495.31;;;10.04;96.33
73674;BME280;61975;48.660;10.164;2023-10-31T07:53:36;94502.47;;;9.98;96.93
73674;BME280;61975;48.660;10.164;2023-10-31T07:56:01;94502.09;;;9.92;97.76
73674;BME280;61975;48.660;10.164;2023-10-31T07:58:27;94506.44;;;10.00;96.68
73674;BME280;61975;48.660;10.164;2023-10-31T08:00:52;94507.69;;;9.89;97.06
73674;BME280;61975;48.660;10.164;2023-10-31T08:03:17;94517.63;;;9.86;97.07
73674;BME280;61975;48.660;10.164;2023-10-31T08:05:43;94522.41;;;9.79;99.29
73674;BME280;61975;48.660;10.164;2023-10-31T08:08:08;94521.50;;;9.92;98.87
73674;BME280;61975;48.660;10.164;2023-10-31T08:10:33;94519.88;;;10.02;99.38
73674;BME280;61975;48.660;10.164;2023-10-31T08:12:59;94518.78;;;9.85;100.00
73674;BME280;61975;48.660;10.164;2023-10-31T08:15:25;94518.56;;;9.59;100.00
73674;BME280;61975;48.660;10.164;2023-10-31T08:17:50;94522.50;;;9.61;100.00
73674;BME280;61975;48.660;10.164;2023-10-31T08:20:16;94524.91;;;9.59;100.00
73674;BME280;61975;48.660;10.164;2023-10-31T08:22:41;94509.75;;;9.74;100.00
73674;BME280;61975;48.660;10.164;2023-10-31T08:25:11;94506.59;;;9.76;100.00
73674;BME280;61975;48.660;10.164;2023-10-31T08:27:37;94506.44;;;9.97;100.00
73674;BME280;61975;48.660;10.164;2023-10-31T08:30:03;94508.38;;;10.07;100.00
73674;BME280;61975;48.660;10.164;2023-10-31T08:32:28;94508.81;;;9.98;100.00
73674;BME280;61975;48.660;10.164;2023-10-31T08:34:54;94514.34;;;10.02;100.00
73674;BME280;61975;48.660;10.164;2023-10-31T08:37:19;94509.88;;;10.18;100.00
73674;BME280;61975;48.660;10.164;2023-10-31T08:39:44;94495.28;;;10.11;100.00
73674;BME280;61975;48.660;10.164;2023-10-31T08:42:10;94505.59;;;10.10;100.00
73674;BME280;61975;48.660;10.164;2023-10-31T08:44:35;94522.59;;;10.12;100.00
73674;BME280;61975;48.660;10.164;2023-10-31T08:47:03;94514.16;;;10.30;100.00
73674;BME280;61975;48.660;10.164;2023-10-31T08:49:29;94505.44;;;10.31;100.00
73674;BME280;61975;48.660;10.164;2023-10-31T08:51:54;94507.34;;;10.34;100.00
73674;BME280;61975;48.660;10.164;2023-10-31T08:54:20;94503.06;;;10.26;100.00
73674;BME280;61975;48.660;10.164;2023-10-31T08:56:45;94510.22;;;10.24;100.00
73674;BME280;61975;48.660;10.164;2023-10-31T08:59:10;94504.00;;;10.09;100.00
73674;BME280;61975;48.660;10.164;2023-10-31T09:01:36;94501.56;;;10.18;100.00
73674;BME280;61975;48.660;10.164;2023-10-31T09:04:02;94502.66;;;10.31;100.00
73674;BME280;61975;48.660;10.164;2023-10-31T09:06:27;94495.03;;;10.39;100.00
73674;BME280;61975;48.660;10.164;2023-10-31T09:08:53;94491.91;;;10.37;100.00
73674;BME280;61975;48.660;10.164;2023-10-31T09:11:18;94491.09;;;10.40;98.95
73674;BME280;61975;48.660;10.164;2023-10-31T09:13:44;94499.94;;;10.24;93.72
73674;BME280;61975;48.660;10.164;2023-10-31T09:16:09;94493.25;;;10.18;94.89
73674;BME280;61975;48.660;10.164;2023-10-31T09:18:35;94491.22;;;10.22;94.73
73674;BME280;61975;48.660;10.164;2023-10-31T09:21:00;94490.38;;;10.29;93.91
73674;BME280;61975;48.660;10.164;2023-10-31T09:23:26;94495.50;;;10.34;91.81
73674;BME280;61975;48.660;10.164;2023-10-31T09:25:51;94491.84;;;10.44;89.41
73674;BME280;61975;48.660;10.164;2023-10-31T09:28:17;94493.44;;;10.41;84.64
73674;BME280;61975;48.660;10.164;2023-10-31T09:30:43;94504.56;;;10.38;83.29
73674;BME280;61975;48.660;10.164;2023-10-31T09:33:09;94516.94;;;10.30;82.25
73674;BME280;61975;48.660;10.164;2023-10-31T09:35:34;94520.00;;;10.42;83.95
73674;BME280;61975;48.660;10.164;2023-10-31T09:38:00;94517.22;;;10.42;82.06
73674;BME280;61975;48.660;10.164;2023-10-31T09:40:25;94535.03;;;10.45;80.62
73674;BME280;61975;48.660;10.164;2023-10-31T09:42:51;94533.00;;;10.49;80.80
73674;BME280;61975;48.660;10.164;2023-10-31T09:45:17;94531.25;;;10.65;81.30
73674;BME280;61975;48.660;10.164;2023-10-31T09:47:42;94554.25;;;10.69;81.18
73674;BME280;61975;48.660;10.164;2023-10-31T09:50:08;94544.84;;;10.56;81.04
73674;BME280;61975;48.660;10.164;2023-10-31T09:52:35;94543.28;;;10.55;81.32
73674;BME280;61975;48.660;10.164;2023-10-31T09:55:01;94549.59;;;10.59;80.35
73674;BME280;61975;48.660;10.164;2023-10-31T09:57:28;94561.03;;;10.61;80.54
73674;BME280;61975;48.660;10.164;2023-10-31T09:59:53;94550.75;;;10.58;81.55
73674;BME280;61975;48.660;10.164;2023-10-31T10:02:18;94561.03;;;10.61;81.58
73674;BME280;61975;48.660;10.164;2023-10-31T10:04:44;94581.22;;;10.69;81.75
73674;BME280;61975;48.660;10.164;2023-10-31T10:07:13;94589.13;;;10.70;82.06
73674;BME280;61975;48.660;10.164;2023-10-31T10:09:40;94571.69;;;10.70;81.17
73674;BME280;61975;48.660;10.164;2023-10-31T10:12:06;94589.81;;;10.85;80.79
73674;BME280;61975;48.660;10.164;2023-10-31T10:14:32;94585.34;;;10.94;81.59
73674;BME280;61975;48.660;10.164;2023-10-31T10:16:57;94589.56;;;11.09;80.15
73674;BME280;61975;48.660;10.164;2023-10-31T10:19:23;94604.31;;;11.03;78.11
73674;BME280;61975;48.660;10.164;2023-10-31T10:21:53;94603.44;;;11.09;79.53
73674;BME280;61975;48.660;10.164;2023-10-31T10:24:20;94610.13;;;11.15;77.69
73674;BME280;61975;48.660;10.164;2023-10-31T10:26:46;94607.03;;;11.06;78.55
73674;BME280;61975;48.660;10.164;2023-10-31T10:29:11;94604.72;;;10.98;78.30
73674;BME280;61975;48.660;10.164;2023-10-31T10:31:36;94609.06;;;11.02;77.84
73674;BME280;61975;48.660;10.164;2023-10-31T10:34:02;94600.25;;;11.11;79.97
73674;BME280;61975;48.660;10.164;2023-10-31T10:36:27;94611.22;;;11.25;79.21
73674;BME280;61975;48.660;10.164;2023-10-31T10:38:56;94613.19;;;11.24;78.15
73674;BME280;61975;48.660;10.164;2023-10-31T10:41:25;94610.88;;;11.19;78.08
73674;BME280;61975;48.660;10.164;2023-10-31T10:43:55;94615.28;;;11.13;78.26
73674;BME280;61975;48.660;10.164;2023-10-31T10:46:26;94623.97;;;11.19;77.95
73674;BME280;61975;48.660;10.164;2023-10-31T10:48:55;94602.59;;;11.16;78.05
73674;BME280;61975;48.660;10.164;2023-10-31T10:51:31;94611.59;;;11.27;78.53
73674;BME280;61975;48.660;10.164;2023-10-31T10:54:04;94606.91;;;11.20;76.17
73674;BME280;61975;48.660;10.164;2023-10-31T10:56:38;94604.03;;;11.27;77.22
73674;BME280;61975;48.660;10.164;2023-10-31T10:59:14;94607.88;;;11.41;75.32
73674;BME280;61975;48.660;10.164;2023-10-31T11:01:41;94604.22;;;11.47;75.82
73674;BME280;61975;48.660;10.164;2023-10-31T11:04:08;94603.38;;;11.54;73.80
73674;BME280;61975;48.660;10.164;2023-10-31T11:06:34;94602.91;;;11.62;73.44
73674;BME280;61975;48.660;10.164;2023-10-31T11:09:00;94615.06;;;11.75;73.45
73674;BME280;61975;48.660;10.164;2023-10-31T11:11:26;94617.50;;;11.70;72.95
73674;BME280;61975;48.660;10.164;2023-10-31T11:13:53;94616.72;;;11.69;72.30
73674;BME280;61975;48.660;10.164;2023-10-31T11:16:38;94607.22;;;11.67;71.62
73674;BME280;61975;48.660;10.164;2023-10-31T11:19:07;94606.06;;;11.64;71.64
73674;BME280;61975;48.660;10.164;2023-10-31T11:21:34;94622.22;;;11.73;72.30
73674;BME280;61975;48.660;10.164;2023-10-31T11:24:00;94611.50;;;11.75;71.65
73674;BME280;61975;48.660;10.164;2023-10-31T11:26:27;94609.16;;;11.70;70.83
73674;BME280;61975;48.660;10.164;2023-10-31T11:28:54;94613.63;;;11.64;72.37
73674;BME280;61975;48.660;10.164;2023-10-31T11:31:27;94620.78;;;11.58;72.63
73674;BME280;61975;48.660;10.164;2023-10-31T11:33:53;94626.41;;;11.54;72.79
73674;BME280;61975;48.660;10.164;2023-10-31T11:36:19;94638.75;;;11.50;74.08
73674;BME280;61975;48.660;10.164;2023-10-31T11:38:44;94620.13;;;11.47;74.82
73674;BME280;61975;48.660;10.164;2023-10-31T11:41:10;94634.09;;;11.40;74.99
73674;BME280;61975;48.660;10.164;2023-10-31T11:43:50;94639.28;;;11.38;76.09
73674;BME280;61975;48.660;10.164;2023-10-31T11:46:23;94642.47;;;11.36;76.70
73674;BME280;61975;48.660;10.164;2023-10-31T11:48:54;94635.66;;;11.44;77.06
73674;BME280;61975;48.660;10.164;2023-10-31T11:51:21;94640.25;;;11.58;76.80
73674;BME280;61975;48.660;10.164;2023-10-31T11:53:48;94641.41;;;11.64;77.10
73674;BME280;61975;48.660;10.164;2023-10-31T11:56:15;94629.41;;;11.74;76.65
73674;BME280;61975;48.660;10.164;2023-10-31T11:58:41;94632.28;;;11.63;76.14
73674;BME280;61975;48.660;10.164;2023-10-31T12:01:10;94640.13;;;11.72;77.48
73674;BME280;61975;48.660;10.164;2023-10-31T12:03:43;94638.22;;;11.65;77.22
73674;BME280;61975;48.660;10.164;2023-10-31T12:06:13;94646.19;;;11.63;78.36
73674;BME280;61975;48.660;10.164;2023-10-31T12:08:40;94646.97;;;11.64;79.71
73674;BME280;61975;48.660;10.164;2023-10-31T12:13:33;94651.56;;;11.77;80.99
73674;BME280;61975;48.660;10.164;2023-10-31T12:15:59;94653.31;;;11.61;82.31
73674;BME280;61975;48.660;10.164;2023-10-31T12:18:27;94656.13;;;11.57;83.22
73674;BME280;61975;48.660;10.164;2023-10-31T12:20:52;94653.31;;;11.64;84.60
73674;BME280;61975;48.660;10.164;2023-10-31T12:23:18;94654.53;;;11.60;85.91
73674;BME280;61975;48.660;10.164;2023-10-31T12:25:53;94654.69;;;11.46;90.09
73674;BME280;61975;48.660;10.164;2023-10-31T12:28:23;94642.38;;;11.43;91.11
73674;BME280;61975;48.660;10.164;2023-10-31T12:30:53;94645.44;;;11.56;89.83
73674;BME280;61975;48.660;10.164;2023-10-31T12:33:26;94645.41;;;11.59;90.22
73674;BME280;61975;48.660;10.164;2023-10-31T12:35:59;94646.19;;;11.63;88.50
73674;BME280;61975;48.660;10.164;2023-10-31T12:38:26;94646.44;;;11.76;88.93
73674;BME280;61975;48.660;10.164;2023-10-31T12:40:52;94648.53;;;11.68;88.24